Time;durP1;ratioP1;P1;durP2;ratioP2;P2;SDS_P1;SDS_P2;PMS_P1;PMS_P2;Temp;Humidity;BMP_temperature;BMP_pressure;BME280_temperature;BME280_humidity;BME280_pressure;Samples;Min_cycle;Max_cycle;Signal;HPM_P1;HPM_P2
2022/10/04 00:01:22;;;;;;;7.45;2.13;;;;;;;;;;6174163;23;20009;-74
2022/10/04 00:03:53;;;;;;;7.30;1.98;;;;;;;;;;6176730;23;20008;-74
2022/10/04 00:06:19;;;;;;;;;;;;;;;;;;6176703;23;20009;-75
2022/10/04 00:08:50;;;;;;;6.70;2.53;;;;;;;;;;6176672;23;19974;-74
2022/10/04 00:11:16;;;;;;;7.32;1.83;;;;;;;;;;6174060;23;20012;-74
2022/10/04 00:13:46;;;;;;;8.07;2.92;;;;;;;;;;6176004;23;20044;-74
2022/10/04 00:16:19;;;;;;;11.35;2.58;;;;;;;;;;6176495;23;20051;-73
2022/10/04 00:18:46;;;;;;;7.85;1.90;;;;;;;;;;6175675;23;20495;-74
2022/10/04 00:21:12;;;;;;;8.88;2.05;;;;;;;;;;6176324;23;20005;-74
2022/10/04 00:23:38;;;;;;;10.52;2.50;;;;;;;;;;6174974;23;20005;-74
2022/10/04 00:26:06;;;;;;;6.78;1.80;;;;;;;;;;6177871;23;20007;-74
2022/10/04 00:28:35;;;;;;;8.57;1.88;;;;;;;;;;6175098;23;20434;-74
2022/10/04 00:31:10;;;;;;;5.90;1.65;;;;;;;;;;6175756;23;20008;-74
2022/10/04 00:33:41;;;;;;;6.65;1.85;;;;;;;;;;6174956;23;20311;-73
2022/10/04 00:36:26;;;;;;;6.20;1.77;;;;;;;;;;6148963;23;20430;-74
2022/10/04 00:39:02;;;;;;;8.32;1.80;;;;;;;;;;6175632;23;20001;-74
2022/10/04 00:41:28;;;;;;;4.18;1.65;;;;;;;;;;6175126;23;20013;-74
2022/10/04 00:43:57;;;;;;;4.50;1.33;;;;;;;;;;6176257;23;20361;-74
2022/10/04 00:46:25;;;;;;;10.60;2.33;;;;;;;;;;6176086;23;20517;-74
2022/10/04 00:48:53;;;;;;;5.78;2.08;;;;;;;;;;6175801;23;20005;-74
2022/10/04 00:51:20;;;;;;;4.35;1.70;;;;;;;;;;6174114;23;20001;-74
2022/10/04 00:53:56;;;;;;;5.82;1.73;;;;;;;;;;6175365;23;20125;-73
2022/10/04 00:56:42;;;;;;;4.95;1.80;;;;;;;;;;6175809;23;20041;-73
2022/10/04 00:59:29;;;;;;;12.73;2.22;;;;;;;;;;6175121;23;20008;-74
2022/10/04 01:01:59;;;;;;;8.77;1.92;;;;;;;;;;6174197;23;20001;-74
2022/10/04 01:04:28;;;;;;;7.32;1.98;;;;;;;;;;6174939;23;20016;-73
2022/10/04 01:06:56;;;;;;;8.75;2.25;;;;;;;;;;6175311;23;20001;-73
2022/10/04 01:09:23;;;;;;;7.32;2.22;;;;;;;;;;6176366;23;20028;-73
2022/10/04 01:11:56;;;;;;;9.07;2.08;;;;;;;;;;6174080;23;20124;-74
2022/10/04 01:14:30;;;;;;;5.32;1.70;;;;;;;;;;6175838;23;20009;-74
2022/10/04 01:16:56;;;;;;;5.18;1.70;;;;;;;;;;6175815;23;20001;-74
2022/10/04 01:19:25;;;;;;;11.32;2.38;;;;;;;;;;6175551;23;20028;-74
2022/10/04 01:21:59;;;;;;;6.60;1.70;;;;;;;;;;6174208;23;20262;-72
2022/10/04 01:24:25;;;;;;;8.60;2.08;;;;;;;;;;6175060;23;20108;-75
2022/10/04 01:26:51;;;;;;;8.70;2.00;;;;;;;;;;6147871;23;20098;-74
2022/10/04 01:29:23;;;;;;;4.90;1.73;;;;;;;;;;6171721;23;20017;-74
2022/10/04 01:31:50;;;;;;;9.18;1.98;;;;;;;;;;6171635;23;19997;-73
2022/10/04 01:34:27;;;;;;;9.98;2.88;;;;;;;;;;6171432;23;20560;-73
2022/10/04 01:36:55;;;;;;;5.03;2.17;;;;;;;;;;6169939;23;20040;-74
2022/10/04 01:39:23;;;;;;;9.57;1.95;;;;;;;;;;6171757;23;20071;-73
2022/10/04 01:41:55;;;;;;;7.95;2.33;;;;;;;;;;6171783;23;20041;-73
2022/10/04 01:44:33;;;;;;;6.40;1.80;;;;;;;;;;6171314;23;20076;-73
2022/10/04 01:47:02;;;;;;;10.25;2.33;;;;;;;;;;6170136;23;20009;-75
2022/10/04 01:49:30;;;;;;;7.43;2.00;;;;;;;;;;6171009;23;20004;-75
2022/10/04 01:52:00;;;;;;;5.63;1.75;;;;;;;;;;6171249;23;20050;-74
2022/10/04 01:54:39;;;;;;;8.52;2.42;;;;;;;;;;6170975;23;20020;-74
2022/10/04 01:57:17;;;;;;;5.22;1.50;;;;;;;;;;6171239;23;20004;-75
2022/10/04 01:59:50;;;;;;;5.55;1.92;;;;;;;;;;6171044;23;20029;-74
2022/10/04 02:02:23;;;;;;;5.50;1.92;;;;;;;;;;6169635;23;20001;-75
2022/10/04 02:04:56;;;;;;;5.55;1.70;;;;;;;;;;6170620;23;20001;-74
2022/10/04 02:07:25;;;;;;;7.82;1.90;;;;;;;;;;6170718;23;20080;-75
2022/10/04 02:09:54;;;;;;;8.35;1.95;;;;;;;;;;6170771;23;20100;-74
2022/10/04 02:12:21;;;;;;;13.10;2.65;;;;;;;;;;6169212;23;20063;-75
2022/10/04 02:14:51;;;;;;;7.45;1.75;;;;;;;;;;6171428;23;20091;-75
2022/10/04 02:17:18;;;;;;;10.02;2.00;;;;;;;;;;6170470;23;20005;-74
2022/10/04 02:19:45;;;;;;;7.05;2.03;;;;;;;;;;6171190;23;20507;-74
2022/10/04 02:22:11;;;;;;;8.15;2.45;;;;;;;;;;6171754;23;20421;-74
2022/10/04 02:24:42;;;;;;;8.73;1.70;;;;;;;;;;6169213;23;20092;-74
2022/10/04 02:27:08;;;;;;;6.50;2.60;;;;;;;;;;6170718;23;20011;-75
2022/10/04 02:29:34;;;;;;;6.20;1.80;;;;;;;;;;6170559;23;20008;-74
2022/10/04 02:34:47;;;;;;;4.45;1.60;;;;;;;;;;6168983;23;20237;-73
2022/10/04 02:37:14;;;;;;;7.03;2.15;;;;;;;;;;6170164;23;20001;-74
2022/10/04 02:39:43;;;;;;;8.73;2.38;;;;;;;;;;6169664;23;20084;-74
2022/10/04 02:42:13;;;;;;;5.60;1.90;;;;;;;;;;6171389;23;20023;-74
2022/10/04 02:44:42;;;;;;;9.73;1.77;;;;;;;;;;6170296;23;20016;-75
2022/10/04 02:47:08;;;;;;;6.32;1.98;;;;;;;;;;6168924;23;20012;-74
2022/10/04 02:49:57;;;;;;;5.55;2.10;;;;;;;;;;6169833;23;20001;-75
2022/10/04 02:52:28;;;;;;;8.23;1.92;;;;;;;;;;6148742;23;20446;-75
2022/10/04 02:54:57;;;;;;;6.90;1.92;;;;;;;;;;6170808;23;20084;-75
2022/10/04 02:57:24;;;;;;;10.43;2.40;;;;;;;;;;6170525;23;20430;-74
2022/10/04 02:59:51;;;;;;;8.52;2.00;;;;;;;;;;6169246;23;20005;-75
2022/10/04 03:02:25;;;;;;;10.50;2.25;;;;;;;;;;6171848;23;19997;-73
2022/10/04 03:04:52;;;;;;;4.93;1.98;;;;;;;;;;6172442;23;20391;-75
2022/10/04 03:07:19;;;;;;;6.70;2.13;;;;;;;;;;6172897;23;20009;-75
2022/10/04 03:09:45;;;;;;;10.45;2.20;;;;;;;;;;6170561;23;20007;-75
2022/10/04 03:12:12;;;;;;;8.15;2.50;;;;;;;;;;6172051;23;20071;-73
2022/10/04 03:14:39;;;;;;;11.48;2.17;;;;;;;;;;6172762;23;20013;-74
2022/10/04 03:17:06;;;;;;;8.23;2.10;;;;;;;;;;6169813;23;20001;-74
2022/10/04 03:19:33;;;;;;;12.25;2.50;;;;;;;;;;6171795;23;20008;-74
2022/10/04 03:22:07;;;;;;;5.95;1.83;;;;;;;;;;6172323;23;20001;-74
2022/10/04 03:24:35;;;;;;;8.60;2.08;;;;;;;;;;6171713;23;20009;-74
2022/10/04 03:27:05;;;;;;;7.38;2.42;;;;;;;;;;6171342;23;20004;-75
2022/10/04 03:29:32;;;;;;;5.97;1.55;;;;;;;;;;6171787;23;20013;-75
2022/10/04 03:32:00;;;;;;;9.77;3.03;;;;;;;;;;6171406;23;20071;-74
2022/10/04 03:34:40;;;;;;;7.00;1.80;;;;;;;;;;6172233;23;20108;-75
2022/10/04 03:37:07;;;;;;;8.02;2.00;;;;;;;;;;6169987;23;20480;-75
2022/10/04 03:39:38;;;;;;;10.57;2.03;;;;;;;;;;6171412;23;20618;-74
2022/10/04 03:42:08;;;;;;;9.90;2.38;;;;;;;;;;6145474;23;20009;-75
2022/10/04 03:44:34;;;;;;;7.53;2.33;;;;;;;;;;6171655;23;20569;-74
2022/10/04 03:47:00;;;;;;;6.78;1.55;;;;;;;;;;6171727;23;19997;-75
2022/10/04 03:49:32;;;;;;;7.78;2.05;;;;;;;;;;6171880;23;20076;-74
2022/10/04 03:51:58;;;;;;;;;;;;;;;;;;6169949;23;20457;-74
2022/10/04 03:54:26;;;;;;;5.90;1.90;;;;;;;;;;6170333;23;19916;-74
2022/10/04 03:56:53;;;;;;;7.93;1.95;;;;;;;;;;6171279;23;20005;-74
2022/10/04 03:59:20;;;;;;;8.80;2.00;;;;;;;;;;6169734;23;20001;-74
2022/10/04 04:02:05;;;;;;;9.80;1.88;;;;;;;;;;6169620;23;20063;-75
2022/10/04 04:04:39;;;;;;;7.90;1.80;;;;;;;;;;6168359;23;20334;-75
2022/10/04 04:07:07;;;;;;;5.45;2.15;;;;;;;;;;6170308;23;20001;-75
2022/10/04 04:09:39;;;;;;;13.18;2.85;;;;;;;;;;6169385;23;20012;-74
2022/10/04 04:12:09;;;;;;;7.95;2.08;;;;;;;;;;6170195;23;20001;-74
2022/10/04 04:14:37;;;;;;;9.40;2.17;;;;;;;;;;6169907;23;20512;-74
2022/10/04 04:17:19;;;;;;;7.97;1.90;;;;;;;;;;6169091;23;20025;-75
2022/10/04 04:19:45;;;;;;;6.40;2.30;;;;;;;;;;6167778;23;20096;-74
2022/10/04 04:22:15;;;;;;;9.00;2.33;;;;;;;;;;6169219;23;20009;-74
2022/10/04 04:24:42;;;;;;;9.60;2.60;;;;;;;;;;6168851;23;20084;-75
2022/10/04 04:27:09;;;;;;;8.25;2.10;;;;;;;;;;6169310;23;20005;-74
2022/10/04 04:29:49;;;;;;;7.20;2.13;;;;;;;;;;6170452;23;20005;-74
2022/10/04 04:32:17;;;;;;;10.82;2.50;;;;;;;;;;6170142;23;20007;-75
2022/10/04 04:34:50;;;;;;;13.20;2.55;;;;;;;;;;6170785;23;20761;-74
2022/10/04 04:37:16;;;;;;;5.63;1.90;;;;;;;;;;6171771;23;20057;-74
2022/10/04 04:39:48;;;;;;;9.20;2.47;;;;;;;;;;6169913;23;20016;-72
2022/10/04 04:42:16;;;;;;;8.43;2.47;;;;;;;;;;6171433;23;20001;-74
2022/10/04 04:44:48;;;;;;;7.85;2.42;;;;;;;;;;6171931;23;20001;-73
2022/10/04 04:47:33;;;;;;;8.60;1.98;;;;;;;;;;6170021;23;20563;-75
2022/10/04 04:50:04;;;;;;;7.40;1.90;;;;;;;;;;6171283;23;20005;-74
2022/10/04 04:52:31;;;;;;;11.17;2.23;;;;;;;;;;6171832;23;20140;-74
2022/10/04 04:54:57;;;;;;;9.63;2.30;;;;;;;;;;6170439;23;20021;-74
2022/10/04 04:57:24;;;;;;;7.10;2.15;;;;;;;;;;6171787;23;20092;-73
2022/10/04 04:59:53;;;;;;;10.57;2.47;;;;;;;;;;6172104;23;20005;-72
2022/10/04 05:02:28;;;;;;;11.23;2.65;;;;;;;;;;6172061;23;20005;-72
2022/10/04 05:05:30;;;;;;;8.68;2.42;;;;;;;;;;6172207;23;20029;-72
2022/10/04 05:08:11;;;;;;;8.15;2.25;;;;;;;;;;6021824;23;20007;-72
2022/10/04 05:10:38;;;;;;;11.20;2.67;;;;;;;;;;6157931;23;20005;-72
2022/10/04 05:13:06;;;;;;;10.85;2.83;;;;;;;;;;6172487;23;20005;-73
2022/10/04 05:15:34;;;;;;;11.32;2.40;;;;;;;;;;6172236;23;20337;-73
2022/10/04 05:18:00;;;;;;;8.23;2.10;;;;;;;;;;6172334;23;20008;-74
2022/10/04 05:20:27;;;;;;;12.20;3.13;;;;;;;;;;6172589;23;20012;-77
2022/10/04 05:22:53;;;;;;;46.50;24.83;;;;;;;;;;6170687;23;20012;-77
2022/10/04 05:25:22;;;;;;;11.57;3.33;;;;;;;;;;6172292;23;20001;-77
2022/10/04 05:27:49;;;;;;;7.80;2.20;;;;;;;;;;6172422;23;20005;-77
2022/10/04 05:30:21;;;;;;;7.57;2.38;;;;;;;;;;6171747;23;20012;-75
2022/10/04 05:32:56;;;;;;;9.93;2.85;;;;;;;;;;6172407;23;20024;-76
2022/10/04 05:35:22;;;;;;;10.40;4.35;;;;;;;;;;6172119;23;20066;-79
2022/10/04 05:37:57;;;;;;;12.63;3.20;;;;;;;;;;6170719;23;20360;-83
2022/10/04 05:40:33;;;;;;;8.10;2.63;;;;;;;;;;6172125;23;20653;-72
2022/10/04 05:42:59;;;;;;;8.18;2.65;;;;;;;;;;6172768;23;20004;-85
2022/10/04 05:45:26;;;;;;;9.32;3.30;;;;;;;;;;6173415;23;20031;-84
2022/10/04 05:47:56;;;;;;;13.77;6.30;;;;;;;;;;6172613;23;20012;-82
2022/10/04 05:50:25;;;;;;;13.68;5.30;;;;;;;;;;6172089;23;20001;-74
2022/10/04 05:52:51;;;;;;;11.80;3.63;;;;;;;;;;6172362;23;20087;-84
2022/10/04 05:55:18;;;;;;;13.55;3.47;;;;;;;;;;6171387;23;20017;-86
2022/10/04 05:57:56;;;;;;;10.23;4.63;;;;;;;;;;6170532;23;20009;-86
2022/10/04 06:00:28;;;;;;;13.00;4.45;;;;;;;;;;6172753;23;20063;-85
2022/10/04 06:02:54;;;;;;;16.25;5.13;;;;;;;;;;6172405;23;20007;-83
2022/10/04 06:05:28;;;;;;;14.93;4.95;;;;;;;;;;6171051;23;20464;-86
2022/10/04 06:07:57;;;;;;;12.45;4.47;;;;;;;;;;6168651;23;20080;-86
2022/10/04 06:10:29;;;;;;;15.05;4.88;;;;;;;;;;6169636;23;20005;-82
2022/10/04 06:12:58;;;;;;;13.07;5.05;;;;;;;;;;6170499;23;20004;-85
2022/10/04 06:15:43;;;;;;;14.32;3.92;;;;;;;;;;6170262;23;20020;-85
2022/10/04 06:18:10;;;;;;;11.52;2.90;;;;;;;;;;6168666;23;20032;-80
2022/10/04 06:20:54;;;;;;;15.10;4.07;;;;;;;;;;6170955;23;20037;-86
2022/10/04 06:23:20;;;;;;;10.65;4.20;;;;;;;;;;6167583;23;20089;-85
2022/10/04 06:25:49;;;;;;;19.95;4.13;;;;;;;;;;6171714;23;20001;-86
2022/10/04 06:28:21;;;;;;;12.90;4.82;;;;;;;;;;6172568;23;20001;-83
2022/10/04 06:31:05;;;;;;;13.70;6.55;;;;;;;;;;6172599;23;20001;-88
2022/10/04 06:33:40;;;;;;;19.25;7.70;;;;;;;;;;6174673;23;20001;-88
2022/10/04 06:36:25;;;;;;;11.38;6.22;;;;;;;;;;6175598;23;20072;-84
2022/10/04 06:38:54;;;;;;;15.98;6.68;;;;;;;;;;6175982;23;20005;-90
2022/10/04 06:41:37;;;;;;;16.17;7.50;;;;;;;;;;6177282;23;20004;-88
2022/10/04 06:44:14;;;;;;;24.30;8.45;;;;;;;;;;6175246;23;20020;-83
2022/10/04 06:46:47;;;;;;;19.45;9.02;;;;;;;;;;6173352;23;20061;-92
2022/10/04 06:49:14;;;;;;;22.50;9.90;;;;;;;;;;6172987;23;20001;-87
2022/10/04 06:51:59;;;;;;;26.98;10.70;;;;;;;;;;6172601;23;20502;-88
2022/10/04 06:54:31;;;;;;;18.13;10.13;;;;;;;;;;6171930;23;20024;-86
2022/10/04 06:57:08;;;;;;;24.55;13.98;;;;;;;;;;6177721;23;20029;-85
2022/10/04 06:59:35;;;;;;;28.58;17.48;;;;;;;;;;6175730;23;20036;-86
2022/10/04 07:02:21;;;;;;;28.88;15.85;;;;;;;;;;6173166;23;19997;-82
2022/10/04 07:05:05;;;;;;;20.55;11.20;;;;;;;;;;6174132;23;20008;-84
2022/10/04 07:07:36;;;;;;;15.98;6.38;;;;;;;;;;6172894;23;20005;-90
2022/10/04 07:10:15;;;;;;;12.88;6.80;;;;;;;;;;6176381;23;20012;-91
2022/10/04 07:12:43;;;;;;;21.40;13.30;;;;;;;;;;6175198;23;20066;-92
2022/10/04 07:15:17;;;;;;;13.13;5.95;;;;;;;;;;6150728;23;20045;-90
2022/10/04 07:17:45;;;;;;;17.30;4.38;;;;;;;;;;6178127;23;20025;-92
2022/10/04 07:20:22;;;;;;;9.50;4.20;;;;;;;;;;6177585;23;20064;-86
2022/10/04 07:22:54;;;;;;;8.38;3.45;;;;;;;;;;6177810;23;20055;-84
2022/10/04 07:25:26;;;;;;;11.52;4.00;;;;;;;;;;6178017;23;20001;-89
2022/10/04 07:30:52;;;;;;;10.48;3.65;;;;;;;;;;6178848;23;20020;-78
2022/10/04 07:33:21;;;;;;;12.43;3.35;;;;;;;;;;6178706;23;20005;-89
2022/10/04 07:35:50;;;;;;;7.65;3.75;;;;;;;;;;6178412;23;20009;-79
2022/10/04 07:38:21;;;;;;;10.43;2.92;;;;;;;;;;6176569;23;20516;-90
2022/10/04 07:41:08;;;;;;;9.18;3.25;;;;;;;;;;6178377;23;20012;-93
2022/10/04 07:43:55;;;;;;;5.97;2.58;;;;;;;;;;6178048;23;20001;-90
2022/10/04 07:46:26;;;;;;;4.18;1.95;;;;;;;;;;6178056;23;20001;-82
2022/10/04 07:48:53;;;;;;;10.85;2.83;;;;;;;;;;6180277;23;20587;-90
2022/10/04 07:51:32;;;;;;;6.07;3.28;;;;;;;;;;6178891;23;20693;-83
2022/10/04 07:54:02;;;;;;;9.75;3.78;;;;;;;;;;6178460;23;20017;-89
2022/10/04 07:56:40;;;;;;;10.10;3.83;;;;;;;;;;6179239;23;20040;-92
2022/10/04 07:59:07;;;;;;;6.78;2.88;;;;;;;;;;6180326;23;19993;-90
2022/10/04 08:01:55;;;;;;;6.88;2.63;;;;;;;;;;6177215;23;20005;-86
2022/10/04 08:04:31;;;;;;;16.58;6.00;;;;;;;;;;6176309;23;20080;-87
2022/10/04 08:06:59;;;;;;;11.10;3.75;;;;;;;;;;6175443;23;20552;-85
2022/10/04 08:09:34;;;;;;;18.98;4.95;;;;;;;;;;6175080;23;20005;-85
2022/10/04 08:12:04;;;;;;;9.32;3.38;;;;;;;;;;6177020;23;20009;-88
2022/10/04 08:14:35;;;;;;;14.10;3.00;;;;;;;;;;6177960;23;20013;-87
2022/10/04 08:17:14;;;;;;;9.82;3.60;;;;;;;;;;6152002;23;20005;-90
2022/10/04 08:19:56;;;;;;;6.50;2.35;;;;;;;;;;6173862;23;20009;-85
2022/10/04 08:22:47;;;;;;;9.25;3.03;;;;;;;;;;6176698;23;20047;-92
2022/10/04 08:25:16;;;;;;;8.88;2.42;;;;;;;;;;6177452;23;20016;-86
2022/10/04 08:30:55;;;;;;;5.13;2.30;;;;;;;;;;6178895;23;20032;-90
2022/10/04 08:33:28;;;;;;;4.30;1.80;;;;;;;;;;6179801;23;20077;-90
2022/10/04 08:36:10;;;;;;;11.23;2.45;;;;;;;;;;6179743;23;20013;-89
2022/10/04 08:38:43;;;;;;;7.65;2.50;;;;;;;;;;6172140;23;20041;-78
2022/10/04 08:41:13;;;;;;;8.45;2.35;;;;;;;;;;6174433;23;20016;-89
2022/10/04 08:43:42;;;;;;;3.55;1.85;;;;;;;;;;6177390;23;19997;-90
2022/10/04 08:46:27;;;;;;;9.40;2.20;;;;;;;;;;6177005;23;20135;-88
2022/10/04 08:48:56;;;;;;;5.88;1.92;;;;;;;;;;6174860;23;20042;-80
2022/10/04 08:51:41;;;;;;;6.25;1.73;;;;;;;;;;6178134;23;20021;-86
2022/10/04 08:54:26;;;;;;;5.00;1.98;;;;;;;;;;6177064;23;20017;-89
2022/10/04 08:57:14;;;;;;;7.65;2.03;;;;;;;;;;6178529;23;20029;-88
2022/10/04 08:59:53;;;;;;;4.57;1.92;;;;;;;;;;6180305;23;20005;-91
2022/10/04 09:02:38;;;;;;;6.00;1.85;;;;;;;;;;6179524;23;20004;-92
2022/10/04 09:05:13;;;;;;;7.50;1.88;;;;;;;;;;6176538;23;19997;-88
2022/10/04 09:07:39;;;;;;;5.72;1.73;;;;;;;;;;6179878;23;20001;-88
2022/10/04 09:10:06;;;;;;;9.27;2.58;;;;;;;;;;6180237;23;20085;-92
2022/10/04 09:12:43;;;;;;;8.18;1.73;;;;;;;;;;6179726;23;20005;-90
2022/10/04 09:15:29;;;;;;;9.05;1.80;;;;;;;;;;6153029;23;20021;-90
2022/10/04 09:18:02;;;;;;;5.35;1.67;;;;;;;;;;6180095;23;20137;-92
2022/10/04 09:20:32;;;;;;;3.38;1.50;;;;;;;;;;6178575;23;20008;-91
2022/10/04 09:23:04;;;;;;;6.80;1.83;;;;;;;;;;6179237;23;20076;-92
2022/10/04 09:25:30;;;;;;;2.95;1.63;;;;;;;;;;6179268;23;20005;-83
2022/10/04 09:28:19;;;;;;;4.10;2.00;;;;;;;;;;6176440;23;20224;-90
2022/10/04 09:30:54;;;;;;;6.53;2.15;;;;;;;;;;6176531;23;20452;-88
2022/10/04 09:33:39;;;;;;;4.57;1.98;;;;;;;;;;6178008;23;20040;-80
2022/10/04 09:36:05;;;;;;;7.55;1.98;;;;;;;;;;6180722;23;20009;-91
2022/10/04 09:38:41;;;;;;;3.30;1.50;;;;;;;;;;6176639;23;20135;-90
2022/10/04 09:41:10;;;;;;;3.10;1.55;;;;;;;;;;6178555;23;20004;-91
2022/10/04 09:43:55;;;;;;;4.75;1.85;;;;;;;;;;6179414;23;20033;-90
2022/10/04 09:46:39;;;;;;;6.05;2.45;;;;;;;;;;6175578;23;20515;-86
2022/10/04 09:49:12;;;;;;;11.50;2.70;;;;;;;;;;6177270;23;20005;-85
2022/10/04 09:52:00;;;;;;;6.20;2.63;;;;;;;;;;6176241;23;20075;-88
2022/10/04 09:54:45;;;;;;;3.88;2.15;;;;;;;;;;6174408;23;20096;-85
2022/10/04 09:57:14;;;;;;;8.50;2.75;;;;;;;;;;6178096;23;20052;-92
2022/10/04 09:59:53;;;;;;;4.32;2.20;;;;;;;;;;6152206;23;20052;-92
2022/10/04 10:02:27;;;;;;;5.25;2.83;;;;;;;;;;6176766;23;20008;-86
2022/10/04 10:05:01;;;;;;;4.40;2.03;;;;;;;;;;6178992;23;20008;-90
2022/10/04 10:07:27;;;;;;;5.47;2.72;;;;;;;;;;6146635;23;20001;-91
2022/10/04 10:15:45;;;;;;;5.65;3.10;;;;;;;;;;6176599;23;20032;-92
2022/10/04 10:18:14;;;;;;;9.00;3.88;;;;;;;;;;6176448;23;20012;-88
2022/10/04 10:20:54;;;;;;;5.70;3.30;;;;;;;;;;6176268;23;20028;-94
2022/10/04 10:23:39;;;;;;;4.30;3.40;;;;;;;;;;6174846;23;20036;-92
2022/10/04 10:26:14;;;;;;;6.85;3.45;;;;;;;;;;6175960;23;20005;-82
2022/10/04 10:29:01;;;;;;;5.43;3.15;;;;;;;;;;6175647;23;20071;-93
2022/10/04 10:31:30;;;;;;;9.60;3.33;;;;;;;;;;6174148;23;20004;-87
2022/10/04 10:34:14;;;;;;;5.78;2.80;;;;;;;;;;6175187;23;20001;-90
2022/10/04 10:36:56;;;;;;;9.30;2.92;;;;;;;;;;6175381;23;20083;-93
2022/10/04 10:39:51;;;;;;;4.82;2.83;;;;;;;;;;6149093;23;20386;-93
2022/10/04 10:42:36;;;;;;;7.65;2.88;;;;;;;;;;6042554;23;20038;-91
2022/10/04 10:45:20;;;;;;;6.85;2.95;;;;;;;;;;6172173;23;20012;-84
2022/10/04 10:47:53;;;;;;;6.25;3.30;;;;;;;;;;6147188;23;20369;-91
2022/10/04 10:50:19;;;;;;;9.20;3.53;;;;;;;;;;6171732;23;20090;-82
2022/10/04 10:52:45;;;;;;;7.75;3.10;;;;;;;;;;6175012;23;20108;-93
2022/10/04 10:55:14;;;;;;;7.82;3.00;;;;;;;;;;6176177;23;20128;-88
2022/10/04 10:58:01;;;;;;;8.13;2.55;;;;;;;;;;6174526;23;20001;-82
2022/10/04 11:00:45;;;;;;;3.75;2.65;;;;;;;;;;6173036;23;20036;-84
2022/10/04 11:03:30;;;;;;;5.00;2.75;;;;;;;;;;6175231;23;20091;-86
2022/10/04 11:06:05;;;;;;;6.00;2.90;;;;;;;;;;6176661;23;19997;-82
2022/10/04 11:08:50;;;;;;;10.57;3.22;;;;;;;;;;6176112;23;20059;-92
2022/10/04 11:11:16;;;;;;;6.75;3.20;;;;;;;;;;6175078;23;20005;-91
2022/10/04 11:14:01;;;;;;;6.78;3.30;;;;;;;;;;6176343;23;20005;-80
2022/10/04 11:16:46;;;;;;;7.38;3.30;;;;;;;;;;6175503;23;20444;-89
2022/10/04 11:19:31;;;;;;;8.18;2.55;;;;;;;;;;6175510;23;20079;-92
2022/10/04 11:22:16;;;;;;;6.65;2.70;;;;;;;;;;6179491;23;20032;-92
2022/10/04 11:24:45;;;;;;;7.75;2.58;;;;;;;;;;6178439;23;20001;-93
2022/10/04 11:27:16;;;;;;;4.45;2.38;;;;;;;;;;6178129;23;20333;-90
2022/10/04 11:29:42;;;;;;;6.18;2.38;;;;;;;;;;6177027;23;20005;-83
2022/10/04 11:32:29;;;;;;;3.90;2.42;;;;;;;;;;6147953;23;20043;-77
2022/10/04 11:35:23;;;;;;;7.82;2.60;;;;;;;;;;6178402;23;20020;-91
2022/10/04 11:37:53;;;;;;;4.63;2.42;;;;;;;;;;6175764;23;20032;-83
2022/10/04 11:40:25;;;;;;;8.00;2.72;;;;;;;;;;6173806;23;20369;-86
2022/10/04 11:43:10;;;;;;;5.05;2.40;;;;;;;;;;6176006;23;20484;-87
2022/10/04 11:45:59;;;;;;;5.35;2.28;;;;;;;;;;6175057;23;20360;-84
2022/10/04 11:48:25;;;;;;;5.80;2.17;;;;;;;;;;6174615;23;20005;-87
2022/10/04 11:51:10;;;;;;;4.57;2.08;;;;;;;;;;6173756;23;20033;-84
2022/10/04 11:53:51;;;;;;;6.47;2.25;;;;;;;;;;6170660;23;20047;-80
2022/10/04 11:56:18;;;;;;;8.38;2.70;;;;;;;;;;6172562;23;20575;-84
2022/10/04 11:58:50;;;;;;;6.07;2.17;;;;;;;;;;6172750;23;20005;-89
2022/10/04 12:01:37;;;;;;;6.30;2.10;;;;;;;;;;6172629;23;20794;-85
2022/10/04 12:04:03;;;;;;;5.88;2.08;;;;;;;;;;6174172;23;20076;-86
2022/10/04 12:06:47;;;;;;;6.50;3.00;;;;;;;;;;6175105;23;20001;-85
2022/10/04 12:09:13;;;;;;;4.15;2.22;;;;;;;;;;6170450;23;20037;-80
2022/10/04 12:15:03;;;;;;;5.43;2.15;;;;;;;;;;6050357;23;20746;-78
2022/10/04 12:17:47;;;;;;;3.42;2.13;;;;;;;;;;6155384;23;20009;-78
2022/10/04 12:20:29;;;;;;;5.25;2.20;;;;;;;;;;6167449;23;20007;-79
2022/10/04 12:23:04;;;;;;;5.30;2.17;;;;;;;;;;6168115;23;20001;-74
2022/10/04 12:25:35;;;;;;;5.28;2.05;;;;;;;;;;6170529;23;20537;-79
2022/10/04 12:28:24;;;;;;;4.30;2.00;;;;;;;;;;6170685;23;20386;-79
2022/10/04 12:31:02;;;;;;;4.97;2.10;;;;;;;;;;6170337;23;20035;-79
2022/10/04 12:33:47;;;;;;;4.75;2.38;;;;;;;;;;6170097;23;20100;-79
2022/10/04 12:36:23;;;;;;;4.10;2.47;;;;;;;;;;6168720;23;20009;-80
2022/10/04 12:38:58;;;;;;;5.22;2.55;;;;;;;;;;6170079;23;20429;-79
2022/10/04 12:41:30;;;;;;;4.45;1.80;;;;;;;;;;6170797;23;20895;-79
2022/10/04 12:44:15;;;;;;;6.20;2.17;;;;;;;;;;6170181;23;20326;-80
2022/10/04 12:46:56;;;;;;;4.63;1.70;;;;;;;;;;6168816;23;20044;-81
2022/10/04 12:49:41;;;;;;;5.65;1.90;;;;;;;;;;6170089;23;20009;-79
2022/10/04 12:52:11;;;;;;;6.45;2.60;;;;;;;;;;6167640;23;20084;-80
2022/10/04 12:55:02;;;;;;;4.75;2.25;;;;;;;;;;6167226;23;20048;-79
2022/10/04 12:57:31;;;;;;;6.80;2.40;;;;;;;;;;6141913;23;20005;-79
2022/10/04 13:00:18;;;;;;;6.57;2.00;;;;;;;;;;6143539;23;20112;-79
2022/10/04 13:02:46;;;;;;;5.15;2.10;;;;;;;;;;6168686;23;20005;-80
2022/10/04 13:05:30;;;;;;;6.35;2.70;;;;;;;;;;6168676;23;20076;-77
2022/10/04 13:08:02;;;;;;;8.23;2.78;;;;;;;;;;6168220;23;20071;-76
2022/10/04 13:10:47;;;;;;;4.32;2.10;;;;;;;;;;6170214;23;19998;-79
2022/10/04 13:13:13;;;;;;;5.18;2.30;;;;;;;;;;6169335;23;20035;-78
2022/10/04 13:15:45;;;;;;;9.18;2.55;;;;;;;;;;6143676;23;20021;-78
2022/10/04 13:18:11;;;;;;;8.80;3.15;;;;;;;;;;6169452;23;20024;-79
2022/10/04 13:20:38;;;;;;;5.15;2.20;;;;;;;;;;6166175;23;20005;-81
2022/10/04 13:23:13;;;;;;;6.93;2.53;;;;;;;;;;6170162;23;20012;-78
2022/10/04 13:26:07;;;;;;;6.47;2.47;;;;;;;;;;6170420;23;20466;-88
2022/10/04 13:28:52;;;;;;;4.28;2.38;;;;;;;;;;6170352;23;20090;-88
2022/10/04 13:31:33;;;;;;;3.35;2.13;;;;;;;;;;6170512;23;20454;-86
2022/10/04 13:34:05;;;;;;;4.45;2.05;;;;;;;;;;6171363;23;20505;-81
2022/10/04 13:36:50;;;;;;;5.47;2.50;;;;;;;;;;6168580;23;20001;-83
2022/10/04 13:39:43;;;;;;;7.75;2.60;;;;;;;;;;6167272;23;20051;-80
2022/10/04 13:42:16;;;;;;;6.57;2.60;;;;;;;;;;6169750;23;20009;-80
2022/10/04 13:44:42;;;;;;;11.88;2.92;;;;;;;;;;6167684;23;20005;-81
2022/10/04 13:47:09;;;;;;;5.45;2.65;;;;;;;;;;6169883;23;20005;-80
2022/10/04 13:49:54;;;;;;;10.80;3.20;;;;;;;;;;6142300;23;20565;-81
2022/10/04 13:58:15;;;;;;;9.07;2.97;;;;;;;;;;6169222;23;20103;-81
2022/10/04 14:01:00;;;;;;;12.38;4.30;;;;;;;;;;6168942;23;20554;-82
2022/10/04 14:03:38;;;;;;;8.23;3.42;;;;;;;;;;6168799;23;20001;-80
2022/10/04 14:06:13;;;;;;;11.68;3.55;;;;;;;;;;6167151;23;19997;-80
2022/10/04 14:08:54;;;;;;;5.60;3.20;;;;;;;;;;6168619;23;20009;-78
2022/10/04 14:11:33;;;;;;;4.90;3.10;;;;;;;;;;6166714;23;20090;-79
2022/10/04 14:14:18;;;;;;;6.03;3.08;;;;;;;;;;6168346;23;20421;-79
2022/10/04 14:16:47;;;;;;;13.75;3.88;;;;;;;;;;6171133;23;20029;-80
2022/10/04 14:19:22;;;;;;;6.88;3.72;;;;;;;;;;6166971;23;20111;-82
2022/10/04 14:21:49;;;;;;;6.22;3.30;;;;;;;;;;6164758;23;19998;-79
2022/10/04 14:24:39;;;;;;;4.93;3.28;;;;;;;;;;6169141;23;20398;-81
2022/10/04 14:27:25;;;;;;;5.57;2.90;;;;;;;;;;6166758;23;20005;-83
2022/10/04 14:29:51;;;;;;;6.38;3.65;;;;;;;;;;6169052;23;20484;-83
2022/10/04 14:32:35;;;;;;;4.40;3.00;;;;;;;;;;6167221;23;20367;-85
2022/10/04 14:35:07;;;;;;;4.13;2.95;;;;;;;;;;6168913;23;20101;-83
2022/10/04 14:37:52;;;;;;;6.55;3.00;;;;;;;;;;6167564;23;20001;-83
2022/10/04 14:40:25;;;;;;;5.28;2.53;;;;;;;;;;6168741;23;20001;-79
2022/10/04 14:43:14;;;;;;;6.00;3.35;;;;;;;;;;6168629;23;20009;-81
2022/10/04 14:45:43;;;;;;;4.88;2.78;;;;;;;;;;6140505;23;20013;-81
2022/10/04 14:48:28;;;;;;;4.68;3.10;;;;;;;;;;6169343;23;20011;-82
2022/10/04 14:50:56;;;;;;;8.43;2.65;;;;;;;;;;6163391;23;20008;-81
2022/10/04 14:53:22;;;;;;;4.90;2.88;;;;;;;;;;6166378;23;20001;-82
2022/10/04 14:56:13;;;;;;;5.50;3.28;;;;;;;;;;6166865;23;20303;-82
2022/10/04 14:58:39;;;;;;;5.50;2.90;;;;;;;;;;6166516;23;20083;-82
2022/10/04 15:01:14;;;;;;;4.65;2.67;;;;;;;;;;6167441;23;20662;-81
2022/10/04 15:03:59;;;;;;;5.00;2.97;;;;;;;;;;6165153;23;20084;-80
2022/10/04 15:06:36;;;;;;;5.22;2.92;;;;;;;;;;6166652;23;20339;-78
2022/10/04 15:09:20;;;;;;;8.30;3.00;;;;;;;;;;6166164;23;20001;-82
2022/10/04 15:11:53;;;;;;;5.75;3.15;;;;;;;;;;6141161;23;20098;-82
2022/10/04 15:14:25;;;;;;;6.95;2.90;;;;;;;;;;6168162;23;20023;-77
2022/10/04 15:16:55;;;;;;;4.03;2.45;;;;;;;;;;6169428;23;20043;-78
2022/10/04 15:19:21;;;;;;;6.45;2.90;;;;;;;;;;6166999;23;20080;-86
2022/10/04 15:21:51;;;;;;;6.35;2.63;;;;;;;;;;6169373;23;20009;-82
2022/10/04 15:24:26;;;;;;;5.75;2.88;;;;;;;;;;6144648;23;20059;-84
2022/10/04 15:26:55;;;;;;;7.22;2.80;;;;;;;;;;6169299;23;20005;-84
2022/10/04 15:29:24;;;;;;;5.07;2.58;;;;;;;;;;6170038;23;20005;-79
2022/10/04 15:32:06;;;;;;;6.18;2.67;;;;;;;;;;6167240;23;20024;-83
2022/10/04 15:34:46;;;;;;;5.05;2.60;;;;;;;;;;6165366;23;20072;-82
2022/10/04 15:37:15;;;;;;;6.97;3.05;;;;;;;;;;6139874;23;20008;-82
2022/10/04 15:39:51;;;;;;;8.45;3.33;;;;;;;;;;6139302;23;20430;-81
2022/10/04 15:42:25;;;;;;;6.75;3.00;;;;;;;;;;6166587;23;20001;-82
2022/10/04 15:45:08;;;;;;;6.15;2.80;;;;;;;;;;6166987;23;20024;-84